sensor_id;sensor_type;location;lat;lon;timestamp;P1;durP1;ratioP1;P2;durP2;ratioP2
64188;SDS011;50493;50.970;10.082;2022-08-20T00:00:18;5.32;;;4.60;;
64188;SDS011;50493;50.970;10.082;2022-08-20T00:02:46;5.07;;;4.40;;
64188;SDS011;50493;50.970;10.082;2022-08-20T00:05:15;5.13;;;4.45;;
64188;SDS011;50493;50.970;10.082;2022-08-20T00:07:44;6.22;;;4.63;;
64188;SDS011;50493;50.970;10.082;2022-08-20T00:10:09;4.70;;;4.20;;
64188;SDS011;50493;50.970;10.082;2022-08-20T00:12:36;5.40;;;4.50;;
64188;SDS011;50493;50.970;10.082;2022-08-20T00:15:07;5.20;;;4.40;;
64188;SDS011;50493;50.970;10.082;2022-08-20T00:17:32;4.70;;;4.18;;
64188;SDS011;50493;50.970;10.082;2022-08-20T00:20:01;5.20;;;4.30;;
64188;SDS011;50493;50.970;10.082;2022-08-20T00:22:28;5.63;;;4.35;;
64188;SDS011;50493;50.970;10.082;2022-08-20T00:24:53;4.40;;;3.90;;
64188;SDS011;50493;50.970;10.082;2022-08-20T00:27:18;5.40;;;4.05;;
64188;SDS011;50493;50.970;10.082;2022-08-20T00:29:45;4.80;;;4.25;;
64188;SDS011;50493;50.970;10.082;2022-08-20T00:32:11;6.18;;;4.00;;
64188;SDS011;50493;50.970;10.082;2022-08-20T00:34:37;4.85;;;4.28;;
64188;SDS011;50493;50.970;10.082;2022-08-20T00:37:02;5.32;;;4.20;;
64188;SDS011;50493;50.970;10.082;2022-08-20T00:39:28;6.22;;;4.65;;
64188;SDS011;50493;50.970;10.082;2022-08-20T00:41:53;4.80;;;3.92;;
64188;SDS011;50493;50.970;10.082;2022-08-20T00:44:20;4.95;;;4.43;;
64188;SDS011;50493;50.970;10.082;2022-08-20T00:46:48;4.85;;;4.20;;
64188;SDS011;50493;50.970;10.082;2022-08-20T00:49:15;5.13;;;4.20;;
64188;SDS011;50493;50.970;10.082;2022-08-20T00:51:44;5.53;;;4.28;;
64188;SDS011;50493;50.970;10.082;2022-08-20T00:54:13;5.22;;;4.35;;
64188;SDS011;50493;50.970;10.082;2022-08-20T00:56:40;5.18;;;4.55;;
64188;SDS011;50493;50.970;10.082;2022-08-20T00:59:08;4.82;;;4.30;;
64188;SDS011;50493;50.970;10.082;2022-08-20T01:01:39;6.10;;;4.30;;
64188;SDS011;50493;50.970;10.082;2022-08-20T01:04:08;5.43;;;4.50;;
64188;SDS011;50493;50.970;10.082;2022-08-20T01:06:35;5.30;;;4.47;;
64188;SDS011;50493;50.970;10.082;2022-08-20T01:09:00;6.75;;;5.03;;
64188;SDS011;50493;50.970;10.082;2022-08-20T01:11:26;5.32;;;4.40;;
64188;SDS011;50493;50.970;10.082;2022-08-20T01:13:58;5.10;;;4.60;;
64188;SDS011;50493;50.970;10.082;2022-08-20T01:16:25;4.88;;;4.30;;
64188;SDS011;50493;50.970;10.082;2022-08-20T01:18:54;6.00;;;4.70;;
64188;SDS011;50493;50.970;10.082;2022-08-20T01:21:23;4.95;;;4.10;;
64188;SDS011;50493;50.970;10.082;2022-08-20T01:23:58;5.65;;;4.40;;
64188;SDS011;50493;50.970;10.082;2022-08-20T01:26:33;5.55;;;4.50;;
64188;SDS011;50493;50.970;10.082;2022-08-20T01:29:03;5.68;;;4.50;;
64188;SDS011;50493;50.970;10.082;2022-08-20T01:31:33;5.35;;;4.43;;
64188;SDS011;50493;50.970;10.082;2022-08-20T01:34:01;5.45;;;4.53;;
64188;SDS011;50493;50.970;10.082;2022-08-20T01:36:28;5.38;;;4.72;;
64188;SDS011;50493;50.970;10.082;2022-08-20T01:38:58;5.75;;;4.43;;
64188;SDS011;50493;50.970;10.082;2022-08-20T01:41:28;5.03;;;4.38;;
64188;SDS011;50493;50.970;10.082;2022-08-20T01:44:07;5.03;;;4.50;;
64188;SDS011;50493;50.970;10.082;2022-08-20T01:46:35;5.05;;;4.53;;
64188;SDS011;50493;50.970;10.082;2022-08-20T01:49:06;5.80;;;4.80;;
64188;SDS011;50493;50.970;10.082;2022-08-20T01:51:34;5.85;;;4.45;;
64188;SDS011;50493;50.970;10.082;2022-08-20T01:53:59;6.25;;;5.05;;
64188;SDS011;50493;50.970;10.082;2022-08-20T01:56:26;5.97;;;4.35;;
64188;SDS011;50493;50.970;10.082;2022-08-20T01:58:55;5.88;;;4.97;;
64188;SDS011;50493;50.970;10.082;2022-08-20T02:01:24;5.20;;;4.50;;
64188;SDS011;50493;50.970;10.082;2022-08-20T02:06:18;5.07;;;4.40;;
64188;SDS011;50493;50.970;10.082;2022-08-20T02:08:49;5.07;;;4.50;;
64188;SDS011;50493;50.970;10.082;2022-08-20T02:11:16;5.55;;;4.60;;
64188;SDS011;50493;50.970;10.082;2022-08-20T02:13:41;5.68;;;4.72;;
64188;SDS011;50493;50.970;10.082;2022-08-20T02:16:08;5.72;;;5.03;;
64188;SDS011;50493;50.970;10.082;2022-08-20T02:18:34;6.65;;;4.85;;
64188;SDS011;50493;50.970;10.082;2022-08-20T02:21:00;5.22;;;4.60;;
64188;SDS011;50493;50.970;10.082;2022-08-20T02:23:26;5.18;;;4.65;;
64188;SDS011;50493;50.970;10.082;2022-08-20T02:25:51;5.50;;;4.70;;
64188;SDS011;50493;50.970;10.082;2022-08-20T02:28:17;5.75;;;4.82;;
64188;SDS011;50493;50.970;10.082;2022-08-20T02:30:45;5.68;;;4.53;;
64188;SDS011;50493;50.970;10.082;2022-08-20T02:33:15;5.90;;;4.65;;
64188;SDS011;50493;50.970;10.082;2022-08-20T02:35:44;5.53;;;4.70;;
64188;SDS011;50493;50.970;10.082;2022-08-20T02:38:11;5.75;;;4.68;;
64188;SDS011;50493;50.970;10.082;2022-08-20T02:40:36;5.50;;;4.90;;
64188;SDS011;50493;50.970;10.082;2022-08-20T02:43:02;6.60;;;4.88;;
64188;SDS011;50493;50.970;10.082;2022-08-20T02:45:29;5.68;;;4.53;;
64188;SDS011;50493;50.970;10.082;2022-08-20T02:48:00;5.60;;;4.60;;
64188;SDS011;50493;50.970;10.082;2022-08-20T02:50:27;5.10;;;4.40;;
64188;SDS011;50493;50.970;10.082;2022-08-20T02:52:52;5.80;;;4.43;;
64188;SDS011;50493;50.970;10.082;2022-08-20T02:55:19;5.85;;;4.45;;
64188;SDS011;50493;50.970;10.082;2022-08-20T02:57:45;5.47;;;4.57;;
64188;SDS011;50493;50.970;10.082;2022-08-20T03:00:11;5.88;;;4.40;;
64188;SDS011;50493;50.970;10.082;2022-08-20T03:02:41;5.55;;;4.75;;
64188;SDS011;50493;50.970;10.082;2022-08-20T03:05:06;6.03;;;4.72;;
64188;SDS011;50493;50.970;10.082;2022-08-20T03:07:40;6.13;;;4.35;;
64188;SDS011;50493;50.970;10.082;2022-08-20T03:10:06;5.70;;;4.25;;
64188;SDS011;50493;50.970;10.082;2022-08-20T03:12:33;5.43;;;4.47;;
64188;SDS011;50493;50.970;10.082;2022-08-20T03:14:58;5.13;;;4.40;;
64188;SDS011;50493;50.970;10.082;2022-08-20T03:17:23;6.70;;;4.78;;
64188;SDS011;50493;50.970;10.082;2022-08-20T03:19:49;6.47;;;4.90;;
64188;SDS011;50493;50.970;10.082;2022-08-20T03:22:15;5.38;;;4.35;;
64188;SDS011;50493;50.970;10.082;2022-08-20T03:24:41;5.57;;;4.72;;
64188;SDS011;50493;50.970;10.082;2022-08-20T03:27:07;5.82;;;4.72;;
64188;SDS011;50493;50.970;10.082;2022-08-20T03:29:32;5.85;;;4.97;;
64188;SDS011;50493;50.970;10.082;2022-08-20T03:31:57;5.88;;;4.53;;
64188;SDS011;50493;50.970;10.082;2022-08-20T03:34:23;6.28;;;4.97;;
64188;SDS011;50493;50.970;10.082;2022-08-20T03:36:49;5.63;;;4.50;;
64188;SDS011;50493;50.970;10.082;2022-08-20T03:39:14;5.00;;;4.20;;
64188;SDS011;50493;50.970;10.082;2022-08-20T03:41:41;5.88;;;5.05;;
64188;SDS011;50493;50.970;10.082;2022-08-20T03:44:06;5.57;;;4.40;;
64188;SDS011;50493;50.970;10.082;2022-08-20T03:46:32;5.78;;;4.85;;
64188;SDS011;50493;50.970;10.082;2022-08-20T03:48:57;7.80;;;5.40;;
64188;SDS011;50493;50.970;10.082;2022-08-20T03:51:23;6.43;;;4.97;;
64188;SDS011;50493;50.970;10.082;2022-08-20T03:53:48;5.65;;;4.70;;
64188;SDS011;50493;50.970;10.082;2022-08-20T03:56:14;5.15;;;4.50;;
64188;SDS011;50493;50.970;10.082;2022-08-20T03:58:42;6.25;;;4.53;;
64188;SDS011;50493;50.970;10.082;2022-08-20T04:01:08;5.10;;;4.10;;
64188;SDS011;50493;50.970;10.082;2022-08-20T04:03:33;5.90;;;4.80;;
64188;SDS011;50493;50.970;10.082;2022-08-20T04:05:59;5.95;;;4.35;;
64188;SDS011;50493;50.970;10.082;2022-08-20T04:08:25;4.97;;;4.40;;
64188;SDS011;50493;50.970;10.082;2022-08-20T04:10:54;6.45;;;4.47;;
64188;SDS011;50493;50.970;10.082;2022-08-20T04:13:23;5.70;;;4.63;;
64188;SDS011;50493;50.970;10.082;2022-08-20T04:15:51;5.40;;;4.10;;
64188;SDS011;50493;50.970;10.082;2022-08-20T04:18:19;5.60;;;4.60;;
64188;SDS011;50493;50.970;10.082;2022-08-20T04:20:48;5.75;;;4.43;;
64188;SDS011;50493;50.970;10.082;2022-08-20T04:23:14;5.57;;;4.60;;
64188;SDS011;50493;50.970;10.082;2022-08-20T04:25:40;6.20;;;5.03;;
64188;SDS011;50493;50.970;10.082;2022-08-20T04:28:07;5.57;;;4.22;;
64188;SDS011;50493;50.970;10.082;2022-08-20T04:30:34;5.60;;;4.35;;
64188;SDS011;50493;50.970;10.082;2022-08-20T04:33:02;5.55;;;4.65;;
64188;SDS011;50493;50.970;10.082;2022-08-20T04:35:28;6.10;;;4.63;;
64188;SDS011;50493;50.970;10.082;2022-08-20T04:37:58;6.63;;;4.85;;
64188;SDS011;50493;50.970;10.082;2022-08-20T04:40:25;5.43;;;4.28;;
64188;SDS011;50493;50.970;10.082;2022-08-20T04:43:10;6.07;;;4.75;;
64188;SDS011;50493;50.970;10.082;2022-08-20T04:45:36;5.50;;;4.63;;
64188;SDS011;50493;50.970;10.082;2022-08-20T04:48:03;5.30;;;4.72;;
64188;SDS011;50493;50.970;10.082;2022-08-20T04:50:30;6.40;;;4.70;;
64188;SDS011;50493;50.970;10.082;2022-08-20T04:52:59;5.45;;;4.43;;
64188;SDS011;50493;50.970;10.082;2022-08-20T04:55:24;4.85;;;4.13;;
64188;SDS011;50493;50.970;10.082;2022-08-20T04:57:50;6.30;;;5.05;;
64188;SDS011;50493;50.970;10.082;2022-08-20T05:00:17;6.07;;;4.90;;
64188;SDS011;50493;50.970;10.082;2022-08-20T05:02:42;6.15;;;4.90;;
64188;SDS011;50493;50.970;10.082;2022-08-20T05:05:09;5.53;;;4.82;;
64188;SDS011;50493;50.970;10.082;2022-08-20T05:07:36;6.03;;;5.13;;
64188;SDS011;50493;50.970;10.082;2022-08-20T05:10:04;5.18;;;4.40;;
64188;SDS011;50493;50.970;10.082;2022-08-20T05:12:30;5.65;;;4.82;;
64188;SDS011;50493;50.970;10.082;2022-08-20T05:14:55;6.30;;;4.95;;
64188;SDS011;50493;50.970;10.082;2022-08-20T05:17:21;5.80;;;4.90;;
64188;SDS011;50493;50.970;10.082;2022-08-20T05:19:47;5.55;;;4.70;;
64188;SDS011;50493;50.970;10.082;2022-08-20T05:22:14;5.88;;;4.80;;
64188;SDS011;50493;50.970;10.082;2022-08-20T05:24:40;6.32;;;5.07;;
64188;SDS011;50493;50.970;10.082;2022-08-20T05:27:05;5.82;;;5.00;;
64188;SDS011;50493;50.970;10.082;2022-08-20T05:29:31;5.95;;;4.95;;
64188;SDS011;50493;50.970;10.082;2022-08-20T05:31:56;5.93;;;4.65;;
64188;SDS011;50493;50.970;10.082;2022-08-20T05:34:22;6.15;;;5.10;;
64188;SDS011;50493;50.970;10.082;2022-08-20T05:36:48;5.70;;;4.60;;
64188;SDS011;50493;50.970;10.082;2022-08-20T05:39:15;7.05;;;4.80;;
64188;SDS011;50493;50.970;10.082;2022-08-20T05:41:42;7.15;;;5.20;;
64188;SDS011;50493;50.970;10.082;2022-08-20T05:44:08;6.70;;;5.32;;
64188;SDS011;50493;50.970;10.082;2022-08-20T05:46:35;6.15;;;5.22;;
64188;SDS011;50493;50.970;10.082;2022-08-20T05:49:04;6.18;;;5.07;;
64188;SDS011;50493;50.970;10.082;2022-08-20T05:51:30;5.60;;;4.80;;
64188;SDS011;50493;50.970;10.082;2022-08-20T05:53:56;5.80;;;4.88;;
64188;SDS011;50493;50.970;10.082;2022-08-20T05:56:23;6.65;;;5.40;;
64188;SDS011;50493;50.970;10.082;2022-08-20T05:58:48;10.80;;;7.63;;
64188;SDS011;50493;50.970;10.082;2022-08-20T06:01:13;9.57;;;8.05;;
64188;SDS011;50493;50.970;10.082;2022-08-20T06:03:39;13.15;;;8.18;;
64188;SDS011;50493;50.970;10.082;2022-08-20T06:06:23;11.05;;;7.78;;
64188;SDS011;50493;50.970;10.082;2022-08-20T06:08:48;6.47;;;5.18;;
64188;SDS011;50493;50.970;10.082;2022-08-20T06:11:13;7.40;;;5.60;;
64188;SDS011;50493;50.970;10.082;2022-08-20T06:13:40;5.82;;;5.07;;
64188;SDS011;50493;50.970;10.082;2022-08-20T06:16:05;5.93;;;4.93;;
64188;SDS011;50493;50.970;10.082;2022-08-20T06:18:31;7.70;;;5.47;;
64188;SDS011;50493;50.970;10.082;2022-08-20T06:20:56;7.43;;;5.15;;
64188;SDS011;50493;50.970;10.082;2022-08-20T06:23:21;6.32;;;4.93;;
64188;SDS011;50493;50.970;10.082;2022-08-20T06:25:49;13.38;;;9.63;;
64188;SDS011;50493;50.970;10.082;2022-08-20T06:28:15;14.13;;;10.52;;
64188;SDS011;50493;50.970;10.082;2022-08-20T06:30:42;10.95;;;8.85;;
64188;SDS011;50493;50.970;10.082;2022-08-20T06:33:07;16.10;;;11.75;;
64188;SDS011;50493;50.970;10.082;2022-08-20T06:35:32;14.98;;;11.43;;
64188;SDS011;50493;50.970;10.082;2022-08-20T06:37:58;16.83;;;11.95;;
64188;SDS011;50493;50.970;10.082;2022-08-20T06:40:25;17.92;;;12.40;;
64188;SDS011;50493;50.970;10.082;2022-08-20T06:42:52;16.55;;;11.95;;
64188;SDS011;50493;50.970;10.082;2022-08-20T06:45:20;16.05;;;11.48;;
64188;SDS011;50493;50.970;10.082;2022-08-20T06:47:52;13.23;;;10.70;;
64188;SDS011;50493;50.970;10.082;2022-08-20T06:50:21;7.50;;;6.20;;
64188;SDS011;50493;50.970;10.082;2022-08-20T06:52:49;14.75;;;10.65;;
64188;SDS011;50493;50.970;10.082;2022-08-20T06:55:15;13.88;;;11.07;;
64188;SDS011;50493;50.970;10.082;2022-08-20T06:57:41;7.30;;;6.03;;
64188;SDS011;50493;50.970;10.082;2022-08-20T07:00:09;6.63;;;5.32;;
64188;SDS011;50493;50.970;10.082;2022-08-20T07:02:36;6.78;;;5.60;;
64188;SDS011;50493;50.970;10.082;2022-08-20T07:05:03;6.75;;;5.95;;
64188;SDS011;50493;50.970;10.082;2022-08-20T07:07:29;6.80;;;5.53;;
64188;SDS011;50493;50.970;10.082;2022-08-20T07:09:58;15.27;;;11.40;;
64188;SDS011;50493;50.970;10.082;2022-08-20T07:14:50;17.95;;;12.20;;
64188;SDS011;50493;50.970;10.082;2022-08-20T07:17:15;19.48;;;13.27;;
64188;SDS011;50493;50.970;10.082;2022-08-20T07:19:40;16.75;;;12.65;;
64188;SDS011;50493;50.970;10.082;2022-08-20T07:22:07;18.05;;;13.13;;
64188;SDS011;50493;50.970;10.082;2022-08-20T07:24:33;16.15;;;12.38;;
64188;SDS011;50493;50.970;10.082;2022-08-20T07:26:58;20.63;;;15.05;;
64188;SDS011;50493;50.970;10.082;2022-08-20T07:29:24;19.15;;;14.13;;
64188;SDS011;50493;50.970;10.082;2022-08-20T07:32:09;20.25;;;13.90;;
64188;SDS011;50493;50.970;10.082;2022-08-20T07:34:53;8.13;;;6.78;;
64188;SDS011;50493;50.970;10.082;2022-08-20T07:37:19;16.63;;;12.15;;
64188;SDS011;50493;50.970;10.082;2022-08-20T07:39:47;19.58;;;14.00;;
64188;SDS011;50493;50.970;10.082;2022-08-20T07:42:13;19.48;;;13.02;;
64188;SDS011;50493;50.970;10.082;2022-08-20T07:44:38;8.82;;;7.15;;
64188;SDS011;50493;50.970;10.082;2022-08-20T07:47:04;14.35;;;11.00;;
64188;SDS011;50493;50.970;10.082;2022-08-20T07:49:30;21.33;;;14.93;;
64188;SDS011;50493;50.970;10.082;2022-08-20T07:51:56;9.98;;;7.38;;
64188;SDS011;50493;50.970;10.082;2022-08-20T07:54:23;19.02;;;13.38;;
64188;SDS011;50493;50.970;10.082;2022-08-20T07:56:48;8.73;;;7.07;;
64188;SDS011;50493;50.970;10.082;2022-08-20T07:59:14;8.48;;;6.78;;
64188;SDS011;50493;50.970;10.082;2022-08-20T08:01:39;11.02;;;8.23;;
64188;SDS011;50493;50.970;10.082;2022-08-20T08:04:05;9.02;;;7.20;;
64188;SDS011;50493;50.970;10.082;2022-08-20T08:06:30;8.93;;;7.30;;
64188;SDS011;50493;50.970;10.082;2022-08-20T08:08:57;8.77;;;6.90;;
64188;SDS011;50493;50.970;10.082;2022-08-20T08:11:26;7.97;;;6.75;;
64188;SDS011;50493;50.970;10.082;2022-08-20T08:13:52;7.72;;;6.70;;
64188;SDS011;50493;50.970;10.082;2022-08-20T08:16:18;8.75;;;7.07;;
64188;SDS011;50493;50.970;10.082;2022-08-20T08:18:45;9.68;;;6.55;;
64188;SDS011;50493;50.970;10.082;2022-08-20T08:21:14;8.40;;;6.78;;
64188;SDS011;50493;50.970;10.082;2022-08-20T08:23:40;8.85;;;6.90;;
64188;SDS011;50493;50.970;10.082;2022-08-20T08:26:08;8.27;;;6.53;;
64188;SDS011;50493;50.970;10.082;2022-08-20T08:28:35;10.25;;;6.88;;
64188;SDS011;50493;50.970;10.082;2022-08-20T08:31:01;11.32;;;8.40;;
64188;SDS011;50493;50.970;10.082;2022-08-20T08:33:27;8.05;;;6.95;;
64188;SDS011;50493;50.970;10.082;2022-08-20T08:35:56;16.20;;;12.20;;
64188;SDS011;50493;50.970;10.082;2022-08-20T08:38:24;10.20;;;8.50;;
64188;SDS011;50493;50.970;10.082;2022-08-20T08:40:50;8.75;;;7.30;;
64188;SDS011;50493;50.970;10.082;2022-08-20T08:43:18;11.52;;;9.07;;
64188;SDS011;50493;50.970;10.082;2022-08-20T08:45:49;9.43;;;7.38;;
64188;SDS011;50493;50.970;10.082;2022-08-20T08:48:21;15.85;;;11.07;;
64188;SDS011;50493;50.970;10.082;2022-08-20T08:50:56;13.25;;;9.93;;
64188;SDS011;50493;50.970;10.082;2022-08-20T08:53:23;9.30;;;7.57;;
64188;SDS011;50493;50.970;10.082;2022-08-20T08:55:51;9.60;;;7.95;;
64188;SDS011;50493;50.970;10.082;2022-08-20T08:58:16;10.20;;;7.63;;
64188;SDS011;50493;50.970;10.082;2022-08-20T09:00:41;8.73;;;7.57;;
64188;SDS011;50493;50.970;10.082;2022-08-20T09:03:11;11.18;;;8.80;;
64188;SDS011;50493;50.970;10.082;2022-08-20T09:05:43;13.82;;;10.40;;
64188;SDS011;50493;50.970;10.082;2022-08-20T09:08:11;12.82;;;9.48;;
64188;SDS011;50493;50.970;10.082;2022-08-20T09:10:39;8.68;;;7.65;;
64188;SDS011;50493;50.970;10.082;2022-08-20T09:13:06;8.95;;;7.60;;
64188;SDS011;50493;50.970;10.082;2022-08-20T09:15:32;13.55;;;10.52;;
64188;SDS011;50493;50.970;10.082;2022-08-20T09:17:59;8.82;;;7.53;;
64188;SDS011;50493;50.970;10.082;2022-08-20T09:20:25;10.23;;;7.70;;
64188;SDS011;50493;50.970;10.082;2022-08-20T09:22:51;14.80;;;10.10;;
64188;SDS011;50493;50.970;10.082;2022-08-20T09:25:17;9.52;;;7.68;;
64188;SDS011;50493;50.970;10.082;2022-08-20T09:27:43;10.15;;;7.88;;
64188;SDS011;50493;50.970;10.082;2022-08-20T09:30:09;7.95;;;6.93;;
64188;SDS011;50493;50.970;10.082;2022-08-20T09:32:35;12.93;;;9.35;;
64188;SDS011;50493;50.970;10.082;2022-08-20T09:35:01;9.15;;;7.38;;
64188;SDS011;50493;50.970;10.082;2022-08-20T09:37:30;12.10;;;8.90;;
64188;SDS011;50493;50.970;10.082;2022-08-20T09:39:56;9.25;;;7.63;;
64188;SDS011;50493;50.970;10.082;2022-08-20T09:42:25;10.68;;;8.68;;
64188;SDS011;50493;50.970;10.082;2022-08-20T09:44:52;9.82;;;7.65;;
64188;SDS011;50493;50.970;10.082;2022-08-20T09:47:17;11.95;;;8.10;;
64188;SDS011;50493;50.970;10.082;2022-08-20T09:49:43;8.80;;;7.43;;
64188;SDS011;50493;50.970;10.082;2022-08-20T09:52:21;9.05;;;7.60;;
64188;SDS011;50493;50.970;10.082;2022-08-20T09:54:50;8.57;;;6.82;;
64188;SDS011;50493;50.970;10.082;2022-08-20T09:57:18;7.63;;;6.15;;
64188;SDS011;50493;50.970;10.082;2022-08-20T09:59:44;7.53;;;6.38;;
64188;SDS011;50493;50.970;10.082;2022-08-20T10:02:15;7.00;;;6.00;;
64188;SDS011;50493;50.970;10.082;2022-08-20T10:04:40;7.32;;;6.35;;
64188;SDS011;50493;50.970;10.082;2022-08-20T10:07:06;6.72;;;5.75;;
64188;SDS011;50493;50.970;10.082;2022-08-20T10:09:32;8.00;;;5.90;;
64188;SDS011;50493;50.970;10.082;2022-08-20T10:11:59;6.05;;;5.13;;
64188;SDS011;50493;50.970;10.082;2022-08-20T10:14:24;6.93;;;5.78;;
64188;SDS011;50493;50.970;10.082;2022-08-20T10:16:53;5.82;;;4.07;;
64188;SDS011;50493;50.970;10.082;2022-08-20T10:19:19;5.25;;;3.88;;
64188;SDS011;50493;50.970;10.082;2022-08-20T10:21:45;6.15;;;5.55;;
64188;SDS011;50493;50.970;10.082;2022-08-20T10:24:10;6.25;;;5.43;;
64188;SDS011;50493;50.970;10.082;2022-08-20T10:26:36;6.75;;;6.05;;
64188;SDS011;50493;50.970;10.082;2022-08-20T10:29:03;5.63;;;4.25;;
64188;SDS011;50493;50.970;10.082;2022-08-20T10:31:28;5.88;;;5.07;;
64188;SDS011;50493;50.970;10.082;2022-08-20T10:33:54;6.15;;;4.97;;
64188;SDS011;50493;50.970;10.082;2022-08-20T10:36:20;6.13;;;4.60;;
64188;SDS011;50493;50.970;10.082;2022-08-20T10:38:46;5.40;;;4.40;;
64188;SDS011;50493;50.970;10.082;2022-08-20T10:41:13;5.50;;;4.43;;
64188;SDS011;50493;50.970;10.082;2022-08-20T10:43:38;5.78;;;5.00;;
64188;SDS011;50493;50.970;10.082;2022-08-20T10:46:08;5.80;;;5.00;;
64188;SDS011;50493;50.970;10.082;2022-08-20T10:48:33;5.88;;;5.10;;
64188;SDS011;50493;50.970;10.082;2022-08-20T10:50:59;5.50;;;4.30;;
64188;SDS011;50493;50.970;10.082;2022-08-20T10:53:24;6.25;;;4.97;;
64188;SDS011;50493;50.970;10.082;2022-08-20T10:55:51;6.03;;;4.72;;
64188;SDS011;50493;50.970;10.082;2022-08-20T10:58:17;6.72;;;5.30;;
64188;SDS011;50493;50.970;10.082;2022-08-20T11:00:42;5.35;;;4.38;;
64188;SDS011;50493;50.970;10.082;2022-08-20T11:03:11;7.18;;;4.55;;
64188;SDS011;50493;50.970;10.082;2022-08-20T11:05:36;5.53;;;4.07;;
64188;SDS011;50493;50.970;10.082;2022-08-20T11:08:02;5.63;;;4.20;;
64188;SDS011;50493;50.970;10.082;2022-08-20T11:10:29;4.90;;;3.80;;
64188;SDS011;50493;50.970;10.082;2022-08-20T11:12:57;5.80;;;4.10;;
64188;SDS011;50493;50.970;10.082;2022-08-20T11:15:22;5.00;;;4.00;;
64188;SDS011;50493;50.970;10.082;2022-08-20T11:17:47;4.63;;;3.85;;
64188;SDS011;50493;50.970;10.082;2022-08-20T11:20:15;3.80;;;3.40;;
64188;SDS011;50493;50.970;10.082;2022-08-20T11:25:08;3.70;;;2.97;;
64188;SDS011;50493;50.970;10.082;2022-08-20T11:27:35;3.50;;;2.80;;
64188;SDS011;50493;50.970;10.082;2022-08-20T11:30:03;3.20;;;2.58;;
64188;SDS011;50493;50.970;10.082;2022-08-20T11:32:30;3.13;;;2.40;;
64188;SDS011;50493;50.970;10.082;2022-08-20T11:34:55;3.30;;;2.60;;
64188;SDS011;50493;50.970;10.082;2022-08-20T11:37:22;3.28;;;2.65;;
64188;SDS011;50493;50.970;10.082;2022-08-20T11:39:48;2.55;;;2.20;;
64188;SDS011;50493;50.970;10.082;2022-08-20T11:42:14;8.77;;;3.22;;
64188;SDS011;50493;50.970;10.082;2022-08-20T11:44:39;3.58;;;2.30;;
64188;SDS011;50493;50.970;10.082;2022-08-20T11:47:05;6.20;;;2.70;;
64188;SDS011;50493;50.970;10.082;2022-08-20T11:49:31;4.75;;;2.50;;
64188;SDS011;50493;50.970;10.082;2022-08-20T11:51:58;2.35;;;1.90;;
64188;SDS011;50493;50.970;10.082;2022-08-20T11:54:26;4.15;;;2.20;;
64188;SDS011;50493;50.970;10.082;2022-08-20T11:56:53;3.80;;;2.35;;
64188;SDS011;50493;50.970;10.082;2022-08-20T11:59:18;2.60;;;2.15;;
64188;SDS011;50493;50.970;10.082;2022-08-20T12:01:44;3.50;;;2.45;;
64188;SDS011;50493;50.970;10.082;2022-08-20T12:04:10;3.67;;;2.42;;
64188;SDS011;50493;50.970;10.082;2022-08-20T12:06:35;3.05;;;2.33;;
64188;SDS011;50493;50.970;10.082;2022-08-20T12:09:00;2.35;;;1.90;;
64188;SDS011;50493;50.970;10.082;2022-08-20T12:11:27;3.10;;;2.13;;
64188;SDS011;50493;50.970;10.082;2022-08-20T12:13:53;3.10;;;2.40;;
64188;SDS011;50493;50.970;10.082;2022-08-20T12:16:18;3.80;;;2.75;;
64188;SDS011;50493;50.970;10.082;2022-08-20T12:18:44;2.55;;;1.90;;
64188;SDS011;50493;50.970;10.082;2022-08-20T12:21:10;2.92;;;2.40;;
64188;SDS011;50493;50.970;10.082;2022-08-20T12:23:36;4.10;;;2.50;;
64188;SDS011;50493;50.970;10.082;2022-08-20T12:26:01;2.88;;;2.17;;
64188;SDS011;50493;50.970;10.082;2022-08-20T12:28:29;3.53;;;2.65;;
64188;SDS011;50493;50.970;10.082;2022-08-20T12:30:54;3.03;;;2.47;;
64188;SDS011;50493;50.970;10.082;2022-08-20T12:33:20;2.15;;;1.85;;
64188;SDS011;50493;50.970;10.082;2022-08-20T12:35:45;2.90;;;2.50;;
64188;SDS011;50493;50.970;10.082;2022-08-20T12:38:10;3.45;;;2.70;;
64188;SDS011;50493;50.970;10.082;2022-08-20T12:40:36;3.15;;;2.60;;
64188;SDS011;50493;50.970;10.082;2022-08-20T12:43:01;3.10;;;2.40;;
64188;SDS011;50493;50.970;10.082;2022-08-20T12:45:29;4.78;;;2.47;;
64188;SDS011;50493;50.970;10.082;2022-08-20T12:47:58;3.20;;;2.70;;
64188;SDS011;50493;50.970;10.082;2022-08-20T12:50:25;3.72;;;2.53;;
64188;SDS011;50493;50.970;10.082;2022-08-20T12:52:51;2.95;;;2.38;;
64188;SDS011;50493;50.970;10.082;2022-08-20T12:55:17;3.67;;;2.60;;
64188;SDS011;50493;50.970;10.082;2022-08-20T12:57:44;2.80;;;2.50;;
64188;SDS011;50493;50.970;10.082;2022-08-20T13:00:12;2.85;;;2.45;;
64188;SDS011;50493;50.970;10.082;2022-08-20T13:02:40;3.53;;;2.60;;
64188;SDS011;50493;50.970;10.082;2022-08-20T13:05:06;2.53;;;2.20;;
64188;SDS011;50493;50.970;10.082;2022-08-20T13:07:33;3.50;;;2.58;;
64188;SDS011;50493;50.970;10.082;2022-08-20T13:09:59;2.95;;;2.50;;
64188;SDS011;50493;50.970;10.082;2022-08-20T13:12:25;3.10;;;2.30;;
64188;SDS011;50493;50.970;10.082;2022-08-20T13:14:51;2.53;;;2.25;;
64188;SDS011;50493;50.970;10.082;2022-08-20T13:17:17;2.67;;;2.40;;
64188;SDS011;50493;50.970;10.082;2022-08-20T13:19:44;2.88;;;2.40;;
64188;SDS011;50493;50.970;10.082;2022-08-20T13:22:10;2.72;;;2.30;;
64188;SDS011;50493;50.970;10.082;2022-08-20T13:24:36;2.92;;;2.30;;
64188;SDS011;50493;50.970;10.082;2022-08-20T13:27:03;2.88;;;2.35;;
64188;SDS011;50493;50.970;10.082;2022-08-20T13:29:29;2.63;;;2.22;;
64188;SDS011;50493;50.970;10.082;2022-08-20T13:31:54;2.55;;;2.20;;
64188;SDS011;50493;50.970;10.082;2022-08-20T13:34:20;3.17;;;2.40;;
64188;SDS011;50493;50.970;10.082;2022-08-20T13:36:46;2.88;;;2.20;;
64188;SDS011;50493;50.970;10.082;2022-08-20T13:39:12;2.95;;;2.45;;
64188;SDS011;50493;50.970;10.082;2022-08-20T13:41:37;2.40;;;2.10;;
64188;SDS011;50493;50.970;10.082;2022-08-20T13:44:02;3.03;;;2.20;;
64188;SDS011;50493;50.970;10.082;2022-08-20T13:46:28;2.40;;;2.17;;
64188;SDS011;50493;50.970;10.082;2022-08-20T13:48:53;2.47;;;2.08;;
64188;SDS011;50493;50.970;10.082;2022-08-20T13:51:19;4.10;;;2.30;;
64188;SDS011;50493;50.970;10.082;2022-08-20T13:53:45;3.70;;;2.25;;
64188;SDS011;50493;50.970;10.082;2022-08-20T13:56:11;4.70;;;2.00;;
64188;SDS011;50493;50.970;10.082;2022-08-20T13:58:36;7.47;;;2.75;;
64188;SDS011;50493;50.970;10.082;2022-08-20T14:01:01;4.65;;;2.60;;
64188;SDS011;50493;50.970;10.082;2022-08-20T14:03:27;3.85;;;2.40;;
64188;SDS011;50493;50.970;10.082;2022-08-20T14:05:52;4.85;;;2.20;;
64188;SDS011;50493;50.970;10.082;2022-08-20T14:08:18;4.70;;;2.38;;
64188;SDS011;50493;50.970;10.082;2022-08-20T14:10:47;3.67;;;2.10;;
64188;SDS011;50493;50.970;10.082;2022-08-20T14:13:14;4.95;;;2.33;;
64188;SDS011;50493;50.970;10.082;2022-08-20T14:15:40;3.45;;;2.08;;
64188;SDS011;50493;50.970;10.082;2022-08-20T14:18:05;5.45;;;2.08;;
64188;SDS011;50493;50.970;10.082;2022-08-20T14:20:31;3.92;;;2.00;;
64188;SDS011;50493;50.970;10.082;2022-08-20T14:22:57;5.00;;;2.17;;
64188;SDS011;50493;50.970;10.082;2022-08-20T14:25:24;2.95;;;2.10;;
64188;SDS011;50493;50.970;10.082;2022-08-20T14:27:52;5.40;;;2.10;;
64188;SDS011;50493;50.970;10.082;2022-08-20T14:30:18;3.42;;;2.15;;
64188;SDS011;50493;50.970;10.082;2022-08-20T14:32:46;3.53;;;1.90;;
64188;SDS011;50493;50.970;10.082;2022-08-20T14:35:11;2.63;;;2.00;;